• Join FlightAware (Why Join?)
  • Login
  • US Flag 
03:48AM EDT


 

Airport Tracker/Info


-or-


 

Live Flight TrackerFlight Track Log ✈ JAS794 ✈ 10-Jul-2013 ✈ KTEB - KAPA

Flight Track Log - Related Links

Times and Time Zones

All times are in EDT time to prevent confusion due to time zone crossing. See the JAS794 flight status page for this flight to view local times or setup timezone preferences in your user account.

Time Position Orientation Groundspeed Altitude Reporting Facility
EDT Latitude Longitude Course Direction KTS MPH feet Rate Location/Type
02:28PM 40.8333 -74.1000 270° West 165 190 1,500  Level New York TRACON
02:29PM 40.8333 -74.1500 270° West 186 214 2,400 1,680 Climbing New York TRACON
02:30PM 40.8500 -74.2333 285° West 237 273 4,900 2,940 Climbing New York TRACON
02:32PM 40.9381 -74.3036 329° Northwest 279 321 10,300 3,240 Climbing New York Center
02:33PM 41.0269 -74.3192 352° North 290 334 13,200 2,700 Climbing New York Center
02:34PM 41.1189 -74.3131 North 323 372 15,800 1,380 Climbing New York Center
02:35PM 41.1700 -74.4122 304° West 298 343 16,000 900 Climbing New York Center
02:36PM 41.2122 -74.5303 295° West 319 367 17,600 1,620 Climbing New York Center
02:37PM 41.2481 -74.6397 294° West 355 409 19,300 1,680 Climbing New York Center
02:38PM 41.2872 -74.7772 291° West 374 430 21,100 1,860 Climbing New York Center
02:39PM 41.3278 -74.9289 290° West 395 455 23,100 1,860 Climbing New York Center
02:40PM 41.3647 -75.0667 290° West 395 455 24,900 1,440 Climbing New York Center
02:41PM 41.4031 -75.2075 290° West 400 460 26,000 540 Climbing New York Center
02:42PM 41.4433 -75.3567 290° West 413 475 26,000  Level New York Center
02:43PM 41.4814 -75.5006 289° West 418 481 26,000  Level New York Center
02:44PM 41.5233 -75.6447 291° West 418 481 26,000  Level New York Center
02:45PM 41.5636 -75.7836 291° West 408 470 26,000 600 Level New York Center
02:46PM 41.6014 -75.9225 290° West 408 470 27,200 1,380 Climbing New York Center
02:47PM 41.6411 -76.0614 291° West 402 463 28,800 1,500 Climbing New York Center
02:48PM 41.6806 -76.2006 291° West 402 463 30,300 1,200 Climbing New York Center
02:49PM 41.7217 -76.3458 291° West 407 468 31,200 900 Climbing New York Center
02:50PM 41.7644 -76.4967 291° West 419 482 32,200 900 Climbing New York Center
02:51PM 41.7978 -76.6275 289° West 419 482 33,100 960 Climbing New York Center
02:52PM 41.8400 -76.7817 290° West 424 488 34,200 1,200 Climbing New York Center
02:53PM 41.8964 -76.9508 294° West 425 489 35,700 1,560 Climbing Cleveland Center
02:54PM 41.9872 -77.0547 320° Northwest 418 481 37,600 1,560 Climbing Cleveland Center
02:55PM 42.0817 -77.1447 325° Northwest 413 475 38,900 1,140 Climbing Cleveland Center
02:56PM 42.1761 -77.2375 324° Northwest 413 475 39,900 840 Climbing Cleveland Center
02:57PM 42.2583 -77.3428 317° Northwest 413 475 40,600 660 Climbing Cleveland Center
02:58PM 42.2894 -77.4869 286° West 392 451 41,300 660 Climbing Cleveland Center
02:59PM 42.2556 -77.6292 252° West 370 426 42,000 660 Climbing Cleveland Center
03:00PM 42.2089 -77.7658 245° Southwest 375 432 42,700 480 Climbing Cleveland Center
03:01PM 42.1853 -77.9069 257° West 381 438 43,000 120 Climbing Cleveland Center
03:02PM 42.2075 -78.0575 281° West 390 449 43,000  Level Cleveland Center
03:03PM 42.2464 -78.2186 288° West 401 461 43,000  Level Cleveland Center
03:04PM 42.2828 -78.3717 288° West 413 475 43,000  Level Cleveland Center
03:05PM 42.3167 -78.5192 287° West 418 481 43,000  Level Cleveland Center
03:06PM 42.3525 -78.6669 288° West 413 475 43,000  Level Cleveland Center
03:07PM 42.3861 -78.8122 287° West 413 475 43,000  Level Cleveland Center
03:08PM 42.4172 -78.9436 288° West 404 465 43,000  Level Cleveland Center
03:09PM 42.4506 -79.0889 287° West 404 465 43,000  Level Cleveland Center
03:10PM 42.4858 -79.2514 286° West 404 465 43,000  Level Cleveland Center
03:11PM 42.4981 -79.4006 276° West 404 465 43,000  Level Cleveland Center
03:12PM 42.5181 -79.5494 280° West 409 471 43,000  Level Cleveland Center
03:13PM 42.5339 -79.6986 278° West 409 471 43,000  Level Cleveland Center
03:14PM 42.5558 -79.8475 281° West 409 471 43,000  Level Cleveland Center
03:15PM 42.5733 -79.9994 279° West 409 471 43,000  Level Cleveland Center
03:16PM 42.5906 -80.1461 279° West 401 461 43,000  Level Cleveland Center
03:17PM 42.6078 -80.2983 279° West 406 467 43,000  Level Cleveland Center
03:18PM 42.6247 -80.4422 279° West 406 467 43,000  Level Cleveland Center
03:19PM 42.6436 -80.5944 280° West 411 473 43,000  Level Cleveland Center
03:20PM 42.6622 -80.7442 280° West 406 467 43,000  Level Cleveland Center
03:21PM 42.6786 -80.8911 279° West 406 467 43,000  Level Cleveland Center
03:22PM 42.6947 -81.0408 278° West 406 467 43,000  Level Cleveland Center
03:23PM 42.7089 -81.1764 278° West 406 467 43,000  Level Cleveland Center
03:24PM 42.7244 -81.3236 278° West 406 467 43,000  Level Cleveland Center
03:25PM 42.7422 -81.4622 280° West 395 455 43,000  Level Cleveland Center
03:26PM 42.7597 -81.6294 278° West 397 457 43,000  Level Cleveland Center
03:27PM 42.7731 -81.7483 279° West 390 449 43,000  Level Cleveland Center
03:28PM 42.7864 -81.8872 277° West 385 443 43,100 -60 Climbing Cleveland Center
03:29PM 42.7992 -82.0264 277° West 385 443 42,900 -60 Descending Cleveland Center
03:30PM 42.8139 -82.1681 278° West 380 437 43,000  Climbing Cleveland Center
03:31PM 42.8286 -82.3044 278° West 375 432 43,000  Level Cleveland Center
03:32PM 42.8433 -82.4436 278° West 375 432 43,000  Level Cleveland Center
03:33PM 42.8597 -82.5856 279° West 375 432 43,000  Level Cleveland Center
03:34PM 42.8733 -82.7447 277° West 375 432 43,000  Level Cleveland Center
03:35PM 42.8872 -82.8869 278° West 375 432 43,000  Level Cleveland Center
03:36PM 42.9011 -83.0264 278° West 380 437 43,000  Level Cleveland Center
03:37PM 42.9147 -83.1631 278° West 380 437 43,000  Level Cleveland Center
03:38PM 42.9261 -83.3053 276° West 380 437 43,000  Level Cleveland Center
03:39PM 42.9394 -83.4447 277° West 380 437 43,000  Level Cleveland Center
03:40PM 42.9525 -83.5900 277° West 380 437 43,000  Level Cleveland Center
03:41PM 42.9631 -83.7353 276° West 375 432 43,000  Level Cleveland Center
03:42PM 42.9406 -83.8703 257° West 375 432 43,000  Level Cleveland Center
03:43PM 42.9158 -84.0053 256° West 375 432 43,000  Level Cleveland Center
03:45PM 42.8756 -84.1961 254° West 371 427 43,000  Level Chicago Center
03:46PM 42.8464 -84.3344 254° West 376 433 43,000  Level Chicago Center
03:47PM 42.8172 -84.4753 254° West 384 442 43,000  Level Chicago Center
03:48PM 42.7883 -84.6125 254° West 380 437 43,000  Level Chicago Center
03:49PM 42.7597 -84.7514 254° West 381 438 43,000  Level Chicago Center
03:50PM 42.7303 -84.8900 254° West 382 440 43,000  Level Chicago Center
03:51PM 42.6950 -85.0567 254° West 382 440 43,000  Level Chicago Center
03:52PM 42.6650 -85.1953 254° West 382 440 43,000  Level Chicago Center
03:53PM 42.6347 -85.3356 254° West 387 445 43,000  Level Chicago Center
03:54PM 42.6039 -85.4742 253° West 385 443 43,000  Level Chicago Center
03:55PM 42.5739 -85.6147 254° West 386 444 43,000  Level Chicago Center
03:56PM 42.5436 -85.7544 254° West 387 445 43,000  Level Chicago Center
03:57PM 42.5125 -85.8933 253° West 384 442 43,000  Level Chicago Center
03:58PM 42.4750 -86.0622 253° West 390 449 43,000  Level Chicago Center
03:59PM 42.4528 -86.2047 258° West 384 442 43,000  Level Chicago Center
04:00PM 42.4353 -86.3481 261° West 386 444 43,000  Level Chicago Center
04:01PM 42.4161 -86.4931 260° West 389 448 43,000  Level Chicago Center
04:02PM 42.3978 -86.6369 260° West 389 448 43,000  Level Chicago Center
04:03PM 42.3794 -86.8000 261° West 391 450 43,000  Level Chicago Center
04:04PM 42.3617 -86.9436 261° West 391 450 43,000  Level Chicago Center
04:05PM 42.3403 -87.0839 258° West 388 447 43,000  Level Chicago Center
04:06PM 42.3208 -87.2278 260° West 392 451 43,000  Level Chicago Center
04:07PM 42.2983 -87.4011 260° West 395 455 43,000  Level Chicago Center
04:08PM 42.2781 -87.5458 259° West 397 457 43,000  Level Chicago Center
04:09PM 42.2583 -87.6897 260° West 396 456 43,000  Level Chicago Center
04:10PM 42.2381 -87.8328 259° West 393 452 43,000  Level Chicago Center
04:11PM 42.2267 -88.0075 265° West 398 458 43,000  Level Chicago Center
04:13PM 42.2369 -88.1522 276° West 397 457 43,000  Level Chicago Center
04:14PM 42.2489 -88.2969 276° West 394 453 43,000  Level Chicago Center
04:15PM 42.2581 -88.4411 275° West 391 450 43,000  Level Chicago Center
04:16PM 42.2694 -88.5844 276° West 389 448 43,000  Level Chicago Center
04:17PM 42.2819 -88.7567 276° West 389 448 43,000  Level Chicago Center
04:18PM 42.2922 -88.9083 275° West 391 450 43,000  Level Chicago Center
04:19PM 42.3017 -89.0547 275° West 393 452 43,000  Level Chicago Center
04:20PM 42.3122 -89.2003 276° West 390 449 43,000  Level Chicago Center
04:21PM 42.3219 -89.3478 275° West 393 452 43,000  Level Chicago Center
04:22PM 42.3314 -89.4939 275° West 390 449 43,000  Level Chicago Center
04:23PM 42.3417 -89.6658 275° West 392 451 43,000  Level Chicago Center
04:24PM 42.3517 -89.8144 275° West 394 453 43,000  Level Chicago Center
04:25PM 42.3597 -89.9553 274° West 394 453 43,000  Level Chicago Center
04:26PM 42.3681 -90.1022 274° West 394 453 43,000  Level Chicago Center
04:27PM 42.3767 -90.2486 275° West 393 452 43,000  Level Chicago Center
04:28PM 42.3867 -90.4258 274° West 396 456 43,000  Level Chicago Center
04:29PM 42.3936 -90.5731 274° West 397 457 43,000  Level Chicago Center
04:30PM 42.4033 -90.7214 275° West 400 460 43,000  Level Chicago Center
04:31PM 42.4142 -90.8703 276° West 400 460 43,100  Climbing Chicago Center
04:32PM 42.4253 -91.0186 276° West 399 459 43,000 -60 Descending Chicago Center
04:33PM 42.4381 -91.1981 276° West 399 459 43,000  Level Chicago Center
04:34PM 42.4467 -91.3469 275° West 399 459 43,000  Level Chicago Center
04:35PM 42.4567 -91.4986 275° West 403 464 43,000  Level Chicago Center
04:36PM 42.4669 -91.6506 275° West 404 465 43,000  Level Chicago Center
04:37PM 42.4769 -91.8033 275° West 405 466 43,000  Level Chicago Center
04:38PM 42.4881 -91.9556 276° West 407 468 43,000  Level Chicago Center
04:39PM 42.4969 -92.1089 275° West 407 468 43,000  Level Chicago Center
04:40PM 42.5078 -92.2914 275° West 407 468 43,000  Level Chicago Center
04:41PM 42.5172 -92.4436 275° West 407 468 43,000  Level Chicago Center
04:43PM 42.5278 -92.6283 274° West 409 471 43,000  Level Minneapolis Center
04:44PM 42.5367 -92.7811 275° West 409 471 43,000  Level Minneapolis Center
04:45PM 42.5444 -92.9350 274° West 411 473 43,000  Level Minneapolis Center
04:46PM 42.5539 -93.0883 275° West 413 475 43,000  Level Chicago Center
04:47PM 42.5622 -93.2411 274° West 411 473 43,000  Level Chicago Center
04:48PM 42.5708 -93.4264 274° West 413 475 43,000  Level Minneapolis Center
04:49PM 42.5800 -93.5794 275° West 410 472 43,000  Level Minneapolis Center
04:50PM 42.5886 -93.7656 274° West 414 476 43,000  Level Minneapolis Center
04:51PM 42.5964 -93.9203 274° West 414 476 43,000  Level Minneapolis Center
04:52PM 42.6033 -94.0758 274° West 416 479 43,000  Level Minneapolis Center
04:53PM 42.6083 -94.2306 273° West 416 479 43,000  Level Minneapolis Center
04:54PM 42.6108 -94.3864 271° West 416 479 43,000  Level Minneapolis Center
04:55PM 42.6083 -94.5733 269° West 417 480 43,000  Level Minneapolis Center
04:56PM 42.6056 -94.7586 269° West 410 472 43,000  Level Minneapolis Center
04:57PM 42.6028 -94.9153 269° West 417 480 43,000  Level Minneapolis Center
04:58PM 42.6003 -95.0744 269° West 424 488 43,000  Level Minneapolis Center
04:59PM 42.5975 -95.2308 269° West 419 482 43,000  Level Minneapolis Center
05:01PM 42.5919 -95.4189 268° West 417 480 43,000  Level Minneapolis Center
05:02PM 42.5889 -95.5747 269° West 416 479 43,000  Level Minneapolis Center
05:03PM 42.5850 -95.7317 268° West 418 481 43,000  Level Minneapolis Center
05:04PM 42.5808 -95.8861 268° West 413 475 43,000  Level Minneapolis Center
05:05PM 42.5761 -96.0433 268° West 417 480 43,000  Level Minneapolis Center
05:06PM 42.5717 -96.1983 268° West 414 476 43,000  Level Minneapolis Center
05:07PM 42.5656 -96.3858 268° West 415 478 43,000  Level Minneapolis Center
05:08PM 42.5617 -96.5417 268° West 415 478 43,000  Level Minneapolis Center
05:09PM 42.5558 -96.7003 267° West 421 484 43,000  Level Minneapolis Center
05:10PM 42.5503 -96.8572 267° West 420 483 43,000  Level Minneapolis Center
05:11PM 42.5450 -97.0131 267° West 417 480 43,000  Level Minneapolis Center
05:12PM 42.5378 -97.1978 267° West 412 474 43,000  Level Minneapolis Center
05:13PM 42.5319 -97.3544 267° West 416 479 43,000  Level Minneapolis Center
05:14PM 42.5261 -97.5106 267° West 417 480 43,000  Level Minneapolis Center
05:15PM 42.5186 -97.6667 266° West 417 480 43,000  Level Minneapolis Center
05:16PM 42.5131 -97.8239 267° West 419 482 43,000  Level Minneapolis Center
05:17PM 42.5050 -97.9867 266° West 419 482 43,000  Level Minneapolis Center
05:18PM 42.4981 -98.1433 267° West 418 481 43,000  Level Minneapolis Center
05:19PM 42.4894 -98.3308 266° West 418 481 43,000  Level Minneapolis Center
05:20PM 42.4817 -98.4867 266° West 416 479 43,000  Level Minneapolis Center
05:21PM 42.4664 -98.6425 262° West 419 482 43,000  Level Minneapolis Center
05:22PM 42.4067 -98.7819 240° Southwest 434 499 43,000  Level Minneapolis Center
05:23PM 42.3242 -98.9064 228° Southwest 443 510 43,000  Level Minneapolis Center
05:24PM 42.2414 -99.0292 228° Southwest 444 511 43,000  Level Minneapolis Center
05:25PM 42.1419 -99.1781 228° Southwest 446 513 43,000  Level Minneapolis Center
05:26PM 42.0575 -99.3011 227° Southwest 449 517 43,000  Level Minneapolis Center
05:27PM 41.9742 -99.4231 227° Southwest 447 514 43,000  Level Minneapolis Center
05:28PM 41.8917 -99.5458 228° Southwest 445 512 43,000  Level Minneapolis Center
05:29PM 41.8067 -99.6686 227° Southwest 448 516 43,000  Level Minneapolis Center
05:31PM 41.7058 -99.8156 227° Southwest 448 516 43,000  Level Minneapolis Center
05:32PM 41.6219 -99.9364 227° Southwest 447 514 43,000  Level Minneapolis Center
05:33PM 41.5372 -100.0561 227° Southwest 445 512 43,000  Level Minneapolis Center
05:34PM 41.4542 -100.1772 228° Southwest 444 511 43,000  Level Minneapolis Center
05:35PM 41.3711 -100.2942 227° Southwest 441 507 43,000  Level Minneapolis Center
05:36PM 41.2886 -100.4117 227° Southwest 438 504 43,000  Level Minneapolis Center
05:37PM 41.1883 -100.5539 227° Southwest 439 505 43,000  Level Minneapolis Center
05:38PM 41.1153 -100.7144 239° Southwest 425 489 43,000  Level Denver Center
05:39PM 41.0806 -100.8808 255° West 424 488 43,000  Level Denver Center
05:40PM 41.0731 -101.0228 266° West 417 480 43,000  Level Denver Center
05:41PM 41.1208 -101.1753 293° West 406 467 43,000  Level Denver Center
05:42PM 41.1642 -101.3008 295° West 395 455 43,000 -180 Level Denver Center
05:43PM 41.2139 -101.4475 294° West 391 450 42,700 -780 Descending Denver Center
05:44PM 41.2539 -101.5786 292° West 399 459 41,400 -1,440 Descending Denver Center
05:45PM 41.3033 -101.7272 294° West 395 455 39,800 -1,500 Descending Denver Center
05:46PM 41.3431 -101.8542 293° West 390 449 38,400 -1,260 Descending Denver Center
05:47PM 41.3422 -102.0189 270° West 400 460 37,300 -1,140 Descending Denver Center
05:48PM 41.3444 -102.1592 271° West 399 459 36,100 -1,320 Descending Denver Center
05:49PM 41.3469 -102.3239 271° West 400 460 34,600 -1,440 Descending Denver Center
05:50PM 41.3528 -102.4678 273° West 405 466 33,200 -1,260 Descending Denver Center
05:51PM 41.3547 -102.6167 271° West 402 463 32,000 -600 Descending Denver Center
05:52PM 41.3042 -102.7794 248° West 427 491 32,000  Level Denver Center
05:54PM 41.2236 -102.8883 225° Southwest 432 497 32,000  Level Denver Center
05:55PM 41.1272 -103.0133 224° Southwest 433 498 32,000  Level Denver Center
05:56PM 41.0425 -103.1231 224° Southwest 439 505 32,000 -420 Level Denver Center
05:57PM 40.9572 -103.2333 224° Southwest 445 512 31,200 -1,500 Descending Denver Center
05:58PM 40.8617 -103.3575 225° Southwest 435 501 28,900 -2,160 Descending Denver Center
05:59PM 40.7850 -103.4564 224° Southwest 411 473 26,700 -2,220 Descending Denver Center
06:00PM 40.6961 -103.5697 224° Southwest 401 461 24,300 -2,220 Descending Denver Center
06:01PM 40.6214 -103.6653 224° Southwest 393 452 22,200 -2,280 Descending Denver Center
06:02PM 40.5375 -103.7731 224° Southwest 379 436 19,700 -2,220 Descending Denver Center
06:03PM 40.4703 -103.8586 224° Southwest 359 413 17,700 -1,800 Descending Denver Center
06:04PM 40.3958 -103.9556 225° Southwest 346 398 16,000 -840 Descending Denver Center
06:05PM 40.3242 -104.0419 223° Southwest 328 377 16,000  Level Denver Center
06:06PM 40.2525 -104.1186 219° Southwest 332 382 16,000  Level Denver Center
06:07PM 40.1811 -104.1939 219° Southwest 330 380 16,000 -540 Level Denver Center
06:08PM 40.1061 -104.2758 220° Southwest 327 376 15,000 -1,320 Descending Denver Center
06:09PM 40.0356 -104.3508 219° Southwest 328 377 13,300 -1,020 Descending Denver Center
06:10PM 39.9614 -104.4311 220° Southwest 321 369 13,000 -180 Descending Denver Center
06:11PM 39.9022 -104.4922 218° Southwest 274 315 13,000  Level Denver Center
06:12PM 39.8344 -104.5344 206° Southwest 277 319 13,000 -240 Level Denver Center
06:13PM 39.7564 -104.5625 195° South 270 311 12,600 -1,320 Descending Denver Center
06:14PM 39.7267 -104.6492 246° West 269 310 10,300 -2,220 Descending Denver Center
06:15PM 39.7103 -104.7425 257° West 264 304 8,100 -1,140 Descending Denver Center
06:16PM 39.6928 -104.8331 256° West 243 280 8,000 -540 Descending Denver Center
06:17PM 39.6469 -104.8556 201° Southwest 181 208 7,000 -900 Descending Denver Center
06:18PM 39.6069 -104.8525 177° South 138 159 6,200 -600 Descending Denver Center
06:19PM 39.5778 -104.8517 179° South 127 146 5,800 -420 Descending Denver Center
06:21PM 39.5701 -104.8493 218° Southwest  Level Estimated
06:28PM 39.5701 -104.8493 218° Southwest  Level Estimated